WEATHER DATA

YESTERDAY
Time Temp. Dewp. Hum. Wind dir Wind speed Wind gust Bar.
00:05 15.8 9.9 68 28 0.8 1.4 1011
00:15 15.8 9.9 68 30 0.8 1.1 1011
00:25 15.6 9.7 68 33 0.8 1.4 1010.9
00:35 15.4 9.5 68 33 0.8 1.1 1011
00:45 15.3 9.4 68 34 0.8 1.1 1010.9
00:55 15.2 9.3 68 32 0.3 1.1 1010.9
01:05 15 9.4 69 31 0.3 1.1 1011
01:16 14.9 9.3 69 34 0.8 1.4 1011
01:25 14.8 9.2 69 34 0.8 1.4 1011
01:35 14.7 9.1 69 34 0.3 1.1 1010.9
01:45 14.6 9 69 28 0.3 1.1 1010.9
01:56 14.5 8.9 69 37 0.8 1.4 1010.9
02:05 14.4 9 70 27 0.8 1.1 1010.9
02:15 14.4 9 70 41 0.8 1.4 1010.9
02:26 14.3 8.9 70 31 0.3 1.1 1010.9
02:36 14.3 8.9 70 35 0.3 1.1 1010.8
02:46 14.3 8.9 70 30 0.3 1.1 1010.9
02:55 14.3 8.9 70 30 0.3 0.8 1010.9
03:06 14.2 8.8 70 37 0.3 1.1 1010.8
03:16 14.2 8.8 70 30 0.3 0.8 1010.8
03:26 14.1 8.9 71 36 0.8 1.1 1010.8
03:37 14.1 8.9 71 29 0.3 1.1 1010.8
03:46 14 8.8 71 35 0.3 1.1 1010.8
03:56 13.9 8.7 71 26 0.3 1.1 1010.7
04:06 13.8 8.6 71 25 0.3 1.1 1010.7
04:17 13.7 8.5 71 21 0.3 0.8 1010.7
04:27 13.6 8.4 71 30 0.3 1.1 1010.6
04:37 13.6 8.4 71 27 0.3 1.1 1010.7
04:47 13.5 8.4 71 36 0.3 1.1 1010.6
04:57 13.4 8.5 72 21 0.3 1.1 1010.6
05:07 13.3 8.4 72 33 0.3 1.1 1010.6
05:17 13.2 8.3 72 30 0.3 1.1 1010.6
05:28 13.2 8.3 72 36 0.3 1.1 1010.6
05:37 13.3 8.4 72 36 0.3 1.4 1010.6
05:47 13.8 9.1 73 319 0.3 1.4 1010.6
05:57 14.4 9.6 73 353 0.3 1.7 1010.6
06:08 14.8 10 73 327 0.3 1.4 1010.7
06:18 15.1 10.3 73 330 0.3 1.1 1010.7
06:28 15.5 10.7 73 338 0.3 2.5 1010.7
06:38 15.8 11 73 14 0.3 1.1 1010.7
06:48 16.2 11.2 72 347 0.8 2.2 1010.9
06:58 16.5 11.4 72 0 0.3 1.4 1010.9
07:08 16.8 11.7 72 54 0.3 1.7 1010.8
07:19 17.1 12 72 243 0.8 1.7 1010.9
07:29 17.4 12.3 72 225 0.3 2.5 1010.8
07:39 17.6 12.5 72 225 0.3 2.5 1010.9
07:49 18 12.9 72 210 0.8 2.8 1011
07:59 18.3 13 71 135 0.3 1.4 1011
08:09 18.6 13.2 71 153 0.3 1.4 1011
08:19 19 13.6 71 126 0.8 1.4 1011
08:29 19.4 14 71 90 0.3 1.1 1011.1
08:39 19.7 14.3 71 135 0.8 1.7 1011
08:49 20 14.6 71 102 0.8 1.7 1011
08:59 20.3 14.9 71 106 0.8 1.7 1011
09:09 20.5 14.8 70 104 0.8 1.7 1011.1
09:19 20.8 15.1 70 113 0.8 1.7 1011
09:29 21.1 15.4 70 104 0.8 1.4 1011.1
09:39 21.4 15.7 70 29 0.3 1.7 1011
09:49 21.7 16 70 18 0.3 1.4 1011
09:59 22 16.1 69 327 0.3 1.4 1011
11:44 24.4 18.1 68 0 0 1010.4
11:55 24.9 18.6 68 0 0 1010.5
12:05 25.1 18.5 67 0 0 1010.3
12:15 25.1 18.5 67 90 0.8 2.2 1010.3
12:25 25.2 18.4 66 341 1.1 3.6 1010.3
12:36 25.4 18.6 66 33 0.3 0.8 1010.2
12:57 26.3 19.4 66 325 0.8 3.1 1010.2
13:02 26.6 19.7 66 326 0.8 3.6 1010.2
13:12 26.9 20 66 251 0.8 2.2 1010.1
13:23 26.5 19.4 65 338 1.1 3.9 1010.1
13:33 26.4 19.3 65 52 1.1 2.8 1010
13:42 26.3 18.9 64 45 0.8 1.4 1009.9
13:53 26.3 18.9 64 330 0.8 2.5 1009.8
14:03 26.6 19.2 64 338 0.8 2.5 1009.7
14:13 27 19.6 64 338 0.8 2.5 1009.7
14:23 27 19.6 64 311 0.8 1.7 1009.7
14:37 27 19.4 63 329 1.1 4.7 1009.8
14:41 27.1 19.5 63 4 0.8 2.2 1009.8
14:51 27 19.4 63 47 1.1 3.1 1009.8
15:02 26.5 18.6 62 335 1.1 4.2 1009.7
15:12 26 18.2 62 351 1.1 2.8 1009.8
15:22 25.6 17.8 62 8 0.8 2.2 1009.7
15:32 25.3 17.5 62 2 0.8 3.1 1009.7
15:42 25 17.2 62 346 0.8 2.8 1009.7
15:52 24.7 16.9 62 0 0.8 2.5 1009.6
16:02 24.9 17.1 62 0 0.3 2.5 1009.5
16:12 25.4 17.8 63 306 1.1 2.8 1009.2
16:22 25.9 18.1 62 336 0.8 2.5 1009.2
16:32 26.2 18.3 62 24 1.1 2.8 1009.1
16:43 26.5 18.6 62 347 0.8 2.8 1009.1
16:52 26.7 18.6 61 357 1.1 3.1 1009
17:02 26.5 18.4 61 30 1.1 3.1 1009
17:12 26.4 18.3 61 39 0.8 1.7 1008.9
17:23 26.3 17.9 60 32 0.8 2.5 1008.9
17:32 26.3 17.9 60 341 0.8 2.2 1008.9
17:42 26.3 17.9 60 3 1.1 2.8 1008.8
17:53 26 17.6 60 40 1.1 2.2 1008.7
18:03 25.9 17.5 60 32 1.1 1.7 1008.7
18:12 25.8 17.5 60 4 0.8 2.2 1008.6
18:23 25.7 17.4 60 23 0.8 2.2 1008.6
18:33 25.6 17.3 60 15 1.1 2.8 1008.6
18:43 25.4 17.1 60 27 1.1 1.7 1008.6
18:52 25.2 16.9 60 31 1.1 1.7 1008.7
19:03 24.9 16.6 60 25 1.1 2.2 1008.8
19:13 24.8 16.5 60 30 1.1 2.2 1008.8
19:23 24.7 16.4 60 28 0.8 1.4 1008.8
19:33 24.5 16.2 60 40 0.8 1.4 1008.8
19:43 24.4 16.1 60 25 1.1 1.7 1009
19:53 24.3 16 60 38 0.8 1.4 1009.2
20:03 24.1 15.9 60 33 0.8 1.4 1009.2
20:14 23.8 15.6 60 37 1.1 1.4 1009.4
20:23 23.4 15.2 60 29 1.1 1.4 1009.5
20:33 22.9 14.7 60 26 0.8 1.7 1009.5
20:43 22.3 14.4 61 23 0.8 1.4 1009.6
20:54 21.8 14 61 33 0.8 1.4 1009.7
21:03 21.2 13.4 61 32 0.8 1.4 1009.8
21:13 20.8 13.3 62 39 0.8 1.4 1009.9
21:24 20.4 13.1 63 29 0.8 1.7 1010
21:34 20 12.7 63 35 0.8 1.7 1010.1
21:43 19.7 12.5 63 30 0.8 1.1 1010.1
21:53 19.4 12.4 64 31 0.8 1.4 1010.2
22:04 19.2 12.2 64 22 0.8 1.4 1010.3
22:14 18.9 11.9 64 34 0.8 1.4 1010.3
22:23 18.6 11.9 65 29 0.8 1.4 1010.4
22:34 18.3 11.6 65 19 0.8 1.4 1010.4
22:44 17.9 11.2 65 19 0.8 1.4 1010.5
22:53 17.6 11 65 19 0.8 1.1 1010.4
23:04 17.4 11 66 32 0.8 1.7 1010.6
23:14 17.1 10.7 66 26 0.8 1.4 1010.7
23:24 16.9 10.5 66 33 0.3 1.1 1010.8
23:33 16.8 10.4 66 33 0.3 1.1 1010.9
23:44 16.6 10.2 66 20 0.3 0.8 1010.9
23:54 16.5 10.1 66 30 0.3 0.8 1011

DAY STATISTIC

2019-07-16
TEMPERATURE
AVERAGE
20.3
HIGH
27.1
14:41
LOW
13.2
05:17
PRESSURE
AVERAGE
1010.2
HIGH
1011.1
08:29
LOW
1008.6
18:12
DEWPOINT
AVERAGE
13.7
HIGH
20.0
13:12
LOW
8.3
05:17
HUMIDITY
AVERAGE
66
HIGH
73
05:47
LOW
60
17:23
WIND SPEED
AVERAGE
0.7
HIGH
1.1
12:25
WIND GUST
AVERAGE
1.7
HIGH
4.7
14:37
WIND DIRECTION
PREVAILING
NE
55.4%
N
23.1
NE
55.4
E
4.6
SE
3.8
S
0.0
SW
3.1
W
0.8
NW
9.2
TEMPERATURE (°C)
LOW
13.2
HIGH
27.1
AVERAGE
20.3
PRESSURE (hpa)
LOW
1008.6
HIGH
1011.1
AVERAGE
1010.2
DEVICE